Time;durP1;ratioP1;P1;durP2;ratioP2;P2;SDS_P1;SDS_P2;PMS_P1;PMS_P2;Temp;Humidity;BMP_temperature;BMP_pressure;BME280_temperature;BME280_humidity;BME280_pressure;Samples;Min_cycle;Max_cycle;Signal;HPM_P1;HPM_P2
2022/03/20 00:01:14;;;;;;;37.53;13.68;;;;;;;0.47;54.40;101501.97;4352856;33;20105;-70
2022/03/20 00:03:41;;;;;;;30.37;12.90;;;;;;;0.75;54.38;101558.94;4336594;33;20044;-70
2022/03/20 00:06:07;;;;;;;30.05;13.25;;;;;;;0.35;54.39;101502.00;4337636;33;20039;-72
2022/03/20 00:08:33;;;;;;;26.77;11.68;;;;;;;0.71;54.09;101562.81;4335294;33;20364;-71
2022/03/20 00:11:02;;;;;;;29.25;12.10;;;;;;;0.40;54.14;101501.63;4338927;33;20052;-70
2022/03/20 00:13:30;;;;;;;21.60;10.75;;;;;;;0.36;54.25;101503.66;4354144;33;20077;-70
2022/03/20 00:15:57;;;;;;;31.73;12.95;;;;;;;0.58;53.78;101541.72;4346185;33;20062;-71
2022/03/20 00:18:26;;;;;;;32.47;11.40;;;;;;;0.62;54.97;101556.41;4332513;33;20462;-71
2022/03/20 00:20:57;;;;;;;22.70;9.90;;;;;;;0.57;54.30;101552.47;4353133;32;20040;-71
2022/03/20 00:23:25;;;;;;;24.85;11.20;;;;;;;0.32;54.39;101515.50;4355208;32;20105;-71
2022/03/20 00:25:55;;;;;;;37.28;12.05;;;;;;;0.18;54.77;101491.91;4355158;32;20483;-71
2022/03/20 00:28:23;;;;;;;29.77;12.43;;;;;;;0.38;54.95;101531.87;4353211;32;20039;-73
2022/03/20 00:30:51;;;;;;;32.08;11.75;;;;;;;0.15;54.84;101497.44;4344756;32;20061;-71
2022/03/20 00:33:17;;;;;;;27.27;11.85;;;;;;;0.42;55.39;101541.28;4335930;33;20099;-71
2022/03/20 00:35:44;;;;;;;30.05;11.80;;;;;;;0.28;55.86;101524.66;4343627;32;20481;-71
2022/03/20 00:38:11;;;;;;;25.42;11.80;;;;;;;0.31;55.67;101540.31;4354365;32;20420;-70
2022/03/20 00:40:38;;;;;;;30.17;13.30;;;;;;;0.27;55.97;101528.28;4341744;32;20087;-73
2022/03/20 00:43:05;;;;;;;29.95;13.68;;;;;;;0.33;56.46;101540.19;4353208;32;20087;-70
2022/03/20 00:45:33;;;;;;;24.90;12.48;;;;;;;0.15;56.84;101526.59;4357119;32;20044;-70
2022/03/20 00:48:00;;;;;;;32.53;12.43;;;;;;;0.19;58.02;101546.56;4356784;32;20166;-69
2022/03/20 00:50:27;;;;;;;29.45;13.35;;;;;;;0.00;58.59;101528.63;4355991;32;20076;-70
2022/03/20 00:52:54;;;;;;;29.50;12.00;;;;;;;0.05;58.38;101533.56;4354964;32;20083;-72
2022/03/20 00:55:21;;;;;;;44.92;13.07;;;;;;;-0.13;58.75;101531.38;4357341;32;20442;-70
2022/03/20 00:57:47;;;;;;;26.85;11.32;;;;;;;-0.04;58.36;101541.25;4328786;33;20032;-71
2022/03/20 01:00:16;;;;;;;26.27;12.77;;;;;;;0.02;58.47;101533.78;4342508;33;20087;-70
2022/03/20 01:02:44;;;;;;;31.35;12.23;;;;;;;-0.04;59.49;101541.25;4340560;33;20040;-73
2022/03/20 01:05:11;;;;;;;36.75;14.43;;;;;;;-0.10;59.72;101552.31;4341525;33;20033;-71
2022/03/20 01:07:38;;;;;;;34.75;13.10;;;;;;;-0.17;59.52;101535.22;4345406;32;20055;-70
2022/03/20 01:10:06;;;;;;;33.63;14.00;;;;;;;-0.46;59.94;101480.06;4357166;32;20035;-70
2022/03/20 01:12:33;;;;;;;36.90;14.40;;;;;;;-1.56;59.42;101304.19;4355690;32;20057;-70
2022/03/20 01:15:01;;;;;;;39.70;14.20;;;;;;;-0.46;61.09;101493.31;4356843;32;20171;-72
2022/03/20 01:17:29;;;;;;;27.45;12.25;;;;;;;-0.26;60.99;101536.75;4350814;33;20069;-70
2022/03/20 01:19:55;;;;;;;34.53;13.23;;;;;;;-0.25;61.43;101532.34;4343038;32;20047;-71
2022/03/20 01:22:22;;;;;;;29.60;12.85;;;;;;;-0.34;61.15;101517.16;4354902;32;20044;-71
2022/03/20 01:24:48;;;;;;;36.08;13.70;;;;;;;-0.54;61.23;101485.13;4343109;32;20061;-71
2022/03/20 01:27:16;;;;;;;33.63;13.73;;;;;;;-0.25;60.96;101532.34;4356321;32;20057;-71
2022/03/20 01:29:43;;;;;;;32.38;13.52;;;;;;;-0.26;60.98;101535.94;4341215;32;20039;-71
2022/03/20 01:32:10;;;;;;;31.52;14.05;;;;;;;-0.62;61.09;101467.16;4355111;32;20060;-71
2022/03/20 01:34:38;;;;;;;35.90;14.40;;;;;;;-0.55;61.10;101480.78;4354082;32;20062;-71
2022/03/20 01:37:05;;;;;;;43.35;15.88;;;;;;;-0.29;61.49;101525.56;4342325;32;20117;-72
2022/03/20 01:39:32;;;;;;;33.53;13.45;;;;;;;-0.60;61.91;101480.28;4356380;32;20051;-71
2022/03/20 01:41:58;;;;;;;32.58;14.70;;;;;;;-0.61;61.46;101481.22;4352141;32;20058;-72
2022/03/20 01:44:33;;;;;;;42.13;13.82;;;;;;;-0.47;62.14;101518.06;4356273;32;20568;-71
2022/03/20 01:47:00;;;;;;;39.00;13.98;;;;;;;-0.67;62.15;101479.03;4341760;32;20453;-71
2022/03/20 01:49:27;;;;;;;37.05;13.57;;;;;;;-0.43;61.89;101530.12;4341486;33;20065;-71
2022/03/20 01:52:23;;;;;;;34.05;14.60;;;;;;;-0.44;62.92;101528.44;4352770;32;20105;-71
2022/03/20 01:54:50;;;;;;;40.72;14.80;;;;;;;-0.44;62.98;101524.94;4327504;33;20033;-71
2022/03/20 01:57:20;;;;;;;35.95;15.32;;;;;;;-0.48;63.21;101527.00;4342448;32;20040;-71
2022/03/20 01:59:48;;;;;;;37.75;13.27;;;;;;;-0.52;64.80;101520.25;4355213;32;20035;-73
2022/03/20 02:02:15;;;;;;;36.15;13.98;;;;;;;-0.58;64.33;101520.69;4355269;32;20039;-71
2022/03/20 02:04:42;;;;;;;35.45;14.02;;;;;;;-0.65;65.08;101520.31;4355931;32;20351;-73
2022/03/20 02:07:10;;;;;;;34.30;14.70;;;;;;;-0.66;64.88;101517.78;4355612;32;20039;-72
2022/03/20 02:09:37;;;;;;;29.05;12.63;;;;;;;-0.90;64.67;101473.69;4354841;32;20065;-72
2022/03/20 02:12:04;;;;;;;46.92;13.62;;;;;;;-0.57;64.04;101520.59;4339868;33;20425;-71
2022/03/20 02:14:34;;;;;;;33.58;13.32;;;;;;;-0.57;63.74;101517.09;4340851;33;20284;-71
2022/03/20 02:17:02;;;;;;;28.02;12.27;;;;;;;-0.53;63.40;101518.53;4355398;32;20036;-72
2022/03/20 02:19:33;;;;;;;32.13;12.13;;;;;;;-0.56;62.92;101509.03;4355929;32;20061;-71
2022/03/20 02:22:08;;;;;;;31.75;13.50;;;;;;;-0.55;62.81;101509.88;4342112;32;20040;-72
2022/03/20 02:24:36;;;;;;;30.83;13.70;;;;;;;-0.86;62.07;101453.13;4342301;32;20927;-72
2022/03/20 02:27:23;;;;;;;32.28;13.38;;;;;;;-0.77;61.64;101463.87;4354638;32;20036;-71
2022/03/20 02:29:52;;;;;;;30.73;12.60;;;;;;;-0.51;61.12;101510.47;4352560;32;20039;-73
2022/03/20 02:32:23;;;;;;;28.65;11.77;;;;;;;-0.50;61.62;101513.00;4354105;32;20048;-71
2022/03/20 02:34:51;;;;;;;28.65;13.35;;;;;;;-0.87;61.46;101447.00;4355948;32;20467;-72
2022/03/20 02:37:20;;;;;;;28.10;10.88;;;;;;;-0.54;61.27;101501.00;4355205;32;20057;-72
2022/03/20 02:39:48;;;;;;;37.08;13.60;;;;;;;-0.50;61.02;101512.19;4341781;32;20333;-72
2022/03/20 02:42:18;;;;;;;33.45;12.02;;;;;;;-0.85;61.40;101460.13;4339762;33;20448;-72
2022/03/20 02:45:00;;;;;;;27.08;12.37;;;;;;;-0.55;61.16;101500.12;4353181;32;20430;-70
2022/03/20 02:47:30;;;;;;;31.52;12.30;;;;;;;-0.88;61.59;101445.31;4353493;32;20032;-71
2022/03/20 02:50:03;;;;;;;31.20;11.23;;;;;;;-0.59;61.44;101505.75;4353100;32;20418;-73
2022/03/20 02:52:41;;;;;;;33.42;12.45;;;;;;;-0.57;61.05;101509.16;4355124;32;20077;-72
2022/03/20 02:55:08;;;;;;;33.25;12.52;;;;;;;-0.62;61.43;101503.38;4355761;32;20401;-72
2022/03/20 02:57:35;;;;;;;28.80;11.80;;;;;;;-0.78;62.82;101487.81;4353870;32;20079;-71
2022/03/20 03:00:05;;;;;;;25.42;11.60;;;;;;;-0.74;62.33;101495.38;4365058;32;20068;-72
2022/03/20 03:02:38;;;;;;;30.48;11.77;;;;;;;-1.02;62.20;101458.72;4353748;32;20073;-72
2022/03/20 03:05:05;;;;;;;32.03;13.23;;;;;;;-0.80;62.83;101501.16;4355371;32;20041;-71
2022/03/20 03:13:10;;;;;;;37.08;12.23;;;;;;;-0.81;63.90;101502.09;4351599;32;20047;-72
2022/03/20 03:15:37;;;;;;;31.12;13.07;;;;;;;-0.90;64.11;101505.44;4354682;32;20040;-72
2022/03/20 03:18:04;;;;;;;26.20;11.90;;;;;;;-0.87;63.47;101505.22;4354971;33;20405;-72
2022/03/20 03:20:31;;;;;;;27.42;11.93;;;;;;;-1.14;63.61;101461.34;4355593;33;20035;-71
2022/03/20 03:22:58;;;;;;;37.95;12.98;;;;;;;-1.20;64.24;101435.34;4341588;33;20386;-73
2022/03/20 03:25:25;;;;;;;23.52;12.20;;;;;;;-0.88;63.40;101482.34;4354022;33;20083;-72
2022/03/20 03:27:52;;;;;;;31.85;10.70;;;;;;;-1.17;62.85;101424.53;4355210;33;20054;-72
2022/03/20 03:30:25;;;;;;;42.65;13.95;;;;;;;-0.76;63.56;101497.31;4353837;33;20069;-73
2022/03/20 03:32:52;;;;;;;39.63;14.32;;;;;;;-0.85;63.40;101503.28;4352748;33;20114;-73
2022/03/20 03:38:05;;;;;;;36.83;11.75;;;;;;;-1.19;63.05;101431.75;4354345;33;20083;-71
2022/03/20 03:40:32;;;;;;;32.13;12.13;;;;;;;-0.71;61.56;101496.12;4355108;33;20397;-71
2022/03/20 03:42:58;;;;;;;40.12;11.65;;;;;;;-0.68;61.03;101499.38;4353164;33;20065;-72
2022/03/20 03:45:25;;;;;;;32.05;12.43;;;;;;;-0.98;60.29;101449.63;4348891;33;20458;-72
2022/03/20 03:47:52;;;;;;;36.10;11.95;;;;;;;-0.93;60.73;101452.75;4339158;33;20082;-71
2022/03/20 03:50:19;;;;;;;29.58;12.88;;;;;;;-0.68;60.50;101499.38;4349831;33;20043;-71
2022/03/20 03:52:46;;;;;;;29.00;11.55;;;;;;;-0.73;60.32;101494.44;4338661;33;20085;-71
2022/03/20 03:55:14;;;;;;;27.90;11.98;;;;;;;-0.77;60.28;101479.72;4339417;33;20462;-73
2022/03/20 03:57:48;;;;;;;36.72;11.43;;;;;;;-0.69;60.60;101496.84;4342447;33;20237;-72
2022/03/20 04:00:20;;;;;;;28.48;11.77;;;;;;;-0.98;60.67;101449.63;4349662;32;20066;-71
2022/03/20 04:02:46;;;;;;;24.08;10.40;;;;;;;-0.74;60.22;101505.97;4356821;32;20057;-72
2022/03/20 04:05:19;;;;;;;30.40;11.38;;;;;;;-0.78;60.52;101488.66;4355837;32;20040;-73
2022/03/20 04:07:47;;;;;;;29.52;12.48;;;;;;;-0.75;61.03;101500.78;4343744;32;20839;-71
2022/03/20 04:10:15;;;;;;;34.45;11.35;;;;;;;-0.73;60.39;101505.03;4357825;32;20044;-71
2022/03/20 04:12:43;;;;;;;35.88;11.75;;;;;;;-0.83;60.63;101484.66;4357865;32;20039;-71
2022/03/20 04:15:11;;;;;;;22.25;10.55;;;;;;;-1.10;61.33;101452.22;4355423;32;20364;-74
2022/03/20 04:17:39;;;;;;;28.42;11.35;;;;;;;-0.84;61.34;101499.69;4357410;32;20197;-72
2022/03/20 04:20:06;;;;;;;33.28;12.98;;;;;;;-0.97;62.14;101493.63;4357123;32;20433;-72
2022/03/20 04:22:36;;;;;;;34.25;12.63;;;;;;;-1.25;62.73;101463.94;4348181;33;20039;-72
2022/03/20 04:25:04;;;;;;;25.10;11.20;;;;;;;-1.30;63.01;101447.56;4355127;32;20058;-74
2022/03/20 04:27:31;;;;;;;35.35;12.32;;;;;;;-1.29;62.79;101452.75;4354401;32;20036;-72
2022/03/20 04:29:59;;;;;;;31.75;13.32;;;;;;;-1.04;63.23;101505.63;4342819;33;20051;-72
2022/03/20 04:32:25;;;;;;;24.92;10.35;;;;;;;-1.38;63.75;101457.88;4357274;32;20081;-72
2022/03/20 04:34:53;;;;;;;29.98;12.05;;;;;;;-1.08;63.54;101512.09;4357629;32;20061;-72
2022/03/20 04:37:21;;;;;;;28.45;11.20;;;;;;;-1.42;63.82;101461.69;4356671;32;20058;-73
2022/03/20 04:39:48;;;;;;;30.58;11.98;;;;;;;-1.22;64.75;101511.28;4355257;32;20422;-71
2022/03/20 04:42:15;;;;;;;34.92;12.05;;;;;;;-1.25;66.17;101506.22;4356607;32;20475;-72
2022/03/20 04:44:43;;;;;;;30.67;13.73;;;;;;;-1.21;65.99;101520.94;4357546;32;20348;-72
2022/03/20 04:58:29;;;;;;;25.10;10.45;;;;;;;-1.58;65.96;101472.53;4357008;32;20167;-72
2022/03/20 04:58:29;;;;;;;30.10;10.82;;;;;;;-1.68;68.06;101467.91;4325666;33;20398;-73
2022/03/20 05:00:57;;;;;;;26.45;10.88;;;;;;;-1.40;67.73;101518.78;4327678;33;20083;-71
2022/03/20 05:05:57;;;;;;;30.35;11.20;;;;;;;-1.80;69.01;101475.84;4339270;32;20048;-71
2022/03/20 05:08:24;;;;;;;34.13;11.60;;;;;;;-1.52;69.68;101525.75;4325198;33;20418;-74
2022/03/20 05:13:40;;;;;;;31.15;12.13;;;;;;;-1.86;69.00;101464.78;4327397;33;20043;-71
2022/03/20 05:16:08;;;;;;;26.30;12.10;;;;;;;-1.81;71.05;101479.47;4339385;33;20389;-73
2022/03/20 05:18:34;;;;;;;30.25;12.20;;;;;;;-1.54;70.40;101522.41;4337190;32;20092;-73
2022/03/20 05:21:01;;;;;;;32.58;12.45;;;;;;;-1.38;69.79;101531.87;4329032;33;20031;-73
2022/03/20 05:23:28;;;;;;;34.85;13.70;;;;;;;-1.30;69.01;101538.28;4341575;33;20098;-73
2022/03/20 05:25:54;;;;;;;32.83;12.27;;;;;;;-1.32;68.92;101531.44;4340960;33;20031;-73
2022/03/20 05:28:21;;;;;;;35.22;11.25;;;;;;;-1.17;67.88;101546.16;4327754;33;20054;-72
2022/03/20 05:30:48;;;;;;;21.67;10.82;;;;;;;-1.13;67.78;101550.28;4342232;33;20403;-72
2022/03/20 05:33:16;;;;;;;27.70;10.68;;;;;;;-1.09;66.48;101558.84;4328888;33;20343;-72
2022/03/20 05:35:45;;;;;;;35.17;13.68;;;;;;;-1.38;67.16;101494.87;4354154;32;20040;-71
2022/03/20 05:38:12;;;;;;;26.77;10.82;;;;;;;-1.04;68.95;101545.28;4338866;32;20044;-72
2022/03/20 05:40:40;;;;;;;31.65;10.77;;;;;;;-0.99;66.97;101553.72;4332172;32;20063;-72
2022/03/20 05:43:10;;;;;;;22.87;10.40;;;;;;;-0.97;66.43;101557.94;4342898;33;20077;-73
2022/03/20 05:45:39;;;;;;;25.98;11.25;;;;;;;-0.95;66.29;101556.03;4345802;32;20037;-71
2022/03/20 05:48:08;;;;;;;25.40;10.75;;;;;;;-0.90;66.12;101571.56;4349554;32;20081;-73
2022/03/20 05:50:35;;;;;;;23.40;10.13;;;;;;;-1.15;65.90;101512.56;4347442;32;20955;-71
2022/03/20 05:53:02;;;;;;;26.80;11.23;;;;;;;-0.72;66.10;101561.41;4354260;32;20069;-76
2022/03/20 05:58:15;;;;;;;27.48;11.38;;;;;;;-0.55;64.38;101568.09;4370142;32;20078;-73
2022/03/20 06:00:42;;;;;;;27.85;12.00;;;;;;;-0.43;63.10;101561.91;4370428;32;20094;-73
2022/03/20 06:03:12;;;;;;;29.70;12.60;;;;;;;-0.14;61.91;101566.78;4371342;32;20051;-73
2022/03/20 06:05:39;;;;;;;28.08;11.12;;;;;;;-0.07;61.02;101560.03;4357345;32;20059;-72
2022/03/20 06:08:06;;;;;;;26.90;12.20;;;;;;;0.09;59.89;101572.09;4347558;32;20061;-72
2022/03/20 06:10:33;;;;;;;29.10;12.43;;;;;;;0.07;59.36;101547.53;4357299;32;20087;-72
2022/03/20 06:13:02;;;;;;;23.17;9.90;;;;;;;0.27;59.29;101565.37;4357375;32;20069;-73
2022/03/20 06:15:29;;;;;;;32.35;12.20;;;;;;;0.17;58.87;101537.91;4357410;32;20085;-73
2022/03/20 06:17:55;;;;;;;31.17;12.75;;;;;;;-0.06;57.91;101494.69;4353555;32;20044;-73
2022/03/20 06:20:22;;;;;;;24.20;12.32;;;;;;;0.56;57.59;101583.44;4354597;32;20056;-71
2022/03/20 06:22:49;;;;;;;27.05;12.95;;;;;;;0.64;58.34;101578.38;4349289;33;20067;-73
2022/03/20 06:25:16;;;;;;;25.80;11.80;;;;;;;0.40;57.62;101527.28;4342138;32;20359;-72
2022/03/20 06:27:46;;;;;;;23.92;11.57;;;;;;;0.81;57.79;101584.12;4340039;32;20062;-73
2022/03/20 06:30:15;;;;;;;23.52;11.35;;;;;;;0.93;56.63;101582.31;4347699;32;20678;-73
2022/03/20 06:32:43;;;;;;;30.73;11.05;;;;;;;1.00;56.28;101589.63;4349924;32;20039;-73
2022/03/20 06:35:11;;;;;;;38.65;13.88;;;;;;;0.72;56.28;101540.62;4355904;32;20032;-72
2022/03/20 06:37:39;;;;;;;34.95;13.20;;;;;;;0.80;56.76;101540.00;4352249;32;20043;-75
2022/03/20 06:40:07;;;;;;;30.75;12.43;;;;;;;1.18;56.19;101578.47;4355425;32;20073;-73
2022/03/20 06:42:34;;;;;;;33.03;12.40;;;;;;;1.34;56.02;101586.88;4354769;32;20048;-72
2022/03/20 06:45:03;;;;;;;22.95;10.60;;;;;;;1.40;55.34;101591.66;4338329;33;20058;-73
2022/03/20 06:47:32;;;;;;;24.10;10.80;;;;;;;1.15;54.88;101549.53;4341194;32;20028;-73
2022/03/20 06:49:59;;;;;;;30.35;11.98;;;;;;;1.54;54.66;101597.66;4338619;33;20050;-73
2022/03/20 06:52:30;;;;;;;24.20;11.02;;;;;;;1.34;54.68;101563.00;4355030;32;20048;-73
2022/03/20 06:54:58;;;;;;;26.20;12.18;;;;;;;1.68;54.73;101613.28;4333638;32;20060;-72
2022/03/20 06:57:26;;;;;;;25.92;9.57;;;;;;;1.82;54.51;101609.47;4348641;32;20076;-73
2022/03/20 06:59:55;;;;;;;32.50;11.88;;;;;;;1.88;53.76;101600.13;4352966;32;20065;-76
2022/03/20 07:02:23;;;;;;;22.87;10.68;;;;;;;2.02;52.95;101604.28;4354690;32;20964;-72
2022/03/20 07:04:51;;;;;;;23.85;10.43;;;;;;;1.85;52.69;101555.22;4341897;32;20050;-72
2022/03/20 07:07:18;;;;;;;26.25;11.05;;;;;;;1.83;53.07;101550.03;4353368;32;20044;-73
2022/03/20 07:09:45;;;;;;;21.95;10.98;;;;;;;2.35;52.34;101613.84;4331695;33;20048;-76
2022/03/20 07:12:12;;;;;;;22.52;9.90;;;;;;;2.46;51.89;101613.75;4362951;32;20035;-72
2022/03/20 07:14:40;;;;;;;22.45;10.27;;;;;;;2.56;51.11;101594.34;4361730;32;20070;-72
2022/03/20 07:17:09;;;;;;;22.33;11.00;;;;;;;2.22;50.67;101522.81;4354989;32;20074;-72
2022/03/20 07:19:38;;;;;;;26.35;10.30;;;;;;;2.76;50.34;101605.88;4355026;33;20124;-73
2022/03/20 07:22:05;;;;;;;20.10;9.50;;;;;;;2.50;49.87;101537.19;4352177;33;20431;-72
2022/03/20 07:24:33;;;;;;;19.65;9.25;;;;;;;3.03;49.03;101602.56;4353008;33;20962;-72
2022/03/20 07:29:45;;;;;;;24.83;10.38;;;;;;;3.14;47.87;101607.78;4353395;32;20061;-75
2022/03/20 07:32:12;;;;;;;26.23;12.52;;;;;;;2.95;47.62;101550.03;4357641;32;20446;-72
2022/03/20 07:34:39;;;;;;;27.85;11.40;;;;;;;3.33;47.55;101592.81;4342363;33;20074;-73
2022/03/20 07:37:06;;;;;;;25.35;10.50;;;;;;;3.31;47.06;101594.78;4355589;32;20086;-74
2022/03/20 07:39:33;;;;;;;23.85;9.07;;;;;;;3.23;47.31;101583.00;4347526;32;20070;-73
2022/03/20 07:42:00;;;;;;;21.40;10.05;;;;;;;3.14;47.34;101562.50;4342870;32;20055;-73
2022/03/20 07:44:31;;;;;;;23.12;9.93;;;;;;;3.38;47.35;101593.22;4357670;32;20063;-73
2022/03/20 07:46:58;;;;;;;25.15;9.65;;;;;;;3.43;46.56;101596.31;4346299;32;20448;-73
2022/03/20 07:49:26;;;;;;;23.38;10.65;;;;;;;3.46;46.74;101593.34;4343255;33;20035;-73
2022/03/20 07:51:55;;;;;;;25.98;11.93;;;;;;;2.99;46.59;101505.34;4343596;32;20095;-73
2022/03/20 07:54:21;;;;;;;28.40;11.38;;;;;;;3.60;46.52;101608.91;4343705;32;20403;-72
2022/03/20 07:56:48;;;;;;;23.30;10.70;;;;;;;3.66;46.81;101599.53;4353125;32;20039;-72
2022/03/20 07:59:16;;;;;;;28.83;12.43;;;;;;;3.49;46.68;101566.44;4356130;32;20065;-70
2022/03/20 08:01:43;;;;;;;23.92;10.70;;;;;;;3.85;46.28;101614.66;4357484;32;20032;-69
2022/03/20 08:04:10;;;;;;;23.08;10.77;;;;;;;3.56;46.01;101556.91;4341626;33;20044;-69
2022/03/20 08:06:36;;;;;;;20.30;10.82;;;;;;;3.93;46.37;101604.13;4351478;32;20060;-70
2022/03/20 08:09:03;;;;;;;30.02;10.73;;;;;;;4.08;45.35;101603.69;4352857;32;20069;-73
2022/03/20 08:11:30;;;;;;;22.75;10.68;;;;;;;4.15;45.81;101594.12;4356082;32;20040;-72
2022/03/20 08:13:57;;;;;;;23.38;8.85;;;;;;;4.26;44.68;101607.28;4356965;32;20040;-73
2022/03/20 08:16:29;;;;;;;24.80;9.13;;;;;;;3.89;43.90;101513.94;4356671;32;20091;-72
2022/03/20 08:18:56;;;;;;;27.33;8.73;;;;;;;4.21;42.21;101577.53;4357259;32;20039;-72
2022/03/20 08:21:23;;;;;;;17.05;8.85;;;;;;;4.39;41.97;101600.78;4349878;32;20370;-73
2022/03/20 08:23:49;;;;;;;18.20;9.80;;;;;;;4.56;41.67;101616.00;4357842;32;20040;-73
2022/03/20 08:26:17;;;;;;;17.62;8.68;;;;;;;4.53;41.04;101592.28;4353486;32;20079;-75
2022/03/20 08:28:44;;;;;;;14.45;6.87;;;;;;;4.66;40.61;101603.47;4357435;32;20036;-73
2022/03/20 08:31:10;;;;;;;17.62;8.30;;;;;;;4.63;40.82;101609.13;4355738;32;20070;-74
2022/03/20 08:33:40;;;;;;;16.85;8.40;;;;;;;4.75;40.31;101600.91;4343038;33;20071;-73
2022/03/20 08:36:07;;;;;;;18.25;7.87;;;;;;;4.83;39.82;101599.16;4341900;33;20059;-75
2022/03/20 08:38:34;;;;;;;13.55;7.28;;;;;;;4.68;38.78;101558.78;4355174;32;20389;-73
2022/03/20 08:41:01;;;;;;;13.77;9.07;;;;;;;4.98;38.05;101607.53;4355731;32;20437;-72
2022/03/20 08:43:27;;;;;;;37.15;7.40;;;;;;;4.97;38.27;101600.50;4352122;32;20053;-74
2022/03/20 08:45:54;;;;;;;17.48;7.50;;;;;;;4.98;36.91;101596.00;4352419;32;20089;-74
2022/03/20 08:48:20;;;;;;;19.52;7.25;;;;;;;4.91;36.93;101585.06;4353322;32;20044;-74
2022/03/20 08:50:50;;;;;;;12.68;7.62;;;;;;;5.08;36.46;101608.28;4371835;32;20077;-73
2022/03/20 08:53:17;;;;;;;16.58;8.18;;;;;;;5.16;36.73;101604.03;4358189;32;20465;-72
2022/03/20 08:55:46;;;;;;;20.77;7.57;;;;;;;5.16;37.08;101596.03;4357433;32;20428;-72
2022/03/20 08:58:12;;;;;;;13.15;7.15;;;;;;;4.97;37.20;101556.94;4355114;32;20069;-74
2022/03/20 09:00:39;;;;;;;25.05;7.87;;;;;;;5.23;36.88;101610.44;4355687;32;20171;-72
2022/03/20 09:03:06;;;;;;;24.92;7.78;;;;;;;5.28;36.74;101605.47;4350864;32;20053;-72
2022/03/20 09:05:33;;;;;;;13.98;7.07;;;;;;;5.34;36.77;101601.38;4356005;32;20043;-72
2022/03/20 09:07:59;;;;;;;19.23;7.90;;;;;;;5.13;36.47;101559.78;4355328;32;20373;-73
2022/03/20 09:10:26;;;;;;;15.68;8.00;;;;;;;5.34;36.70;101612.06;4349249;32;20197;-71
2022/03/20 09:12:57;;;;;;;19.20;7.85;;;;;;;5.36;36.32;101610.94;4355833;32;20327;-72
2022/03/20 09:15:25;;;;;;;16.60;7.63;;;;;;;5.02;36.27;101542.13;4356882;32;20141;-73
2022/03/20 09:20:39;;;;;;;17.52;8.32;;;;;;;5.64;36.98;101608.16;4357198;32;20040;-74
2022/03/20 09:23:07;;;;;;;12.75;7.68;;;;;;;5.69;36.53;101608.53;4357242;32;20048;-71
2022/03/20 09:25:34;;;;;;;13.38;6.55;;;;;;;5.60;36.43;101558.66;4344683;32;20079;-74
2022/03/20 09:28:02;;;;;;;17.33;8.60;;;;;;;5.71;36.20;101558.44;4356665;32;20057;-73
2022/03/20 09:30:30;;;;;;;18.87;7.55;;;;;;;6.02;35.90;101590.09;4370147;32;20454;-73
2022/03/20 09:32:56;;;;;;;23.65;9.05;;;;;;;5.66;35.93;101557.22;4360884;32;20070;-74
2022/03/20 09:35:23;;;;;;;15.23;6.82;;;;;;;5.87;35.95;101587.16;4360563;32;20363;-74
2022/03/20 09:37:50;;;;;;;16.05;8.20;;;;;;;6.06;36.09;101594.12;4352378;32;20385;-73
2022/03/20 09:40:18;;;;;;;13.45;7.55;;;;;;;5.83;35.69;101527.75;4346587;32;20077;-73
2022/03/20 09:42:44;;;;;;;13.90;7.10;;;;;;;6.03;34.76;101565.06;4341796;32;20080;-74
2022/03/20 09:45:11;;;;;;;18.83;8.40;;;;;;;6.39;35.59;101597.00;4330426;33;20674;-73
2022/03/20 09:47:40;;;;;;;17.45;7.80;;;;;;;6.39;35.52;101585.47;4339941;33;20109;-74
2022/03/20 09:50:09;;;;;;;17.08;6.93;;;;;;;6.22;35.19;101549.75;4324277;33;21731;-73
2022/03/20 09:52:43;;;;;;;16.55;8.02;;;;;;;6.62;35.13;101585.75;4337783;33;20040;-73
2022/03/20 09:55:11;;;;;;;26.52;8.38;;;;;;;6.45;35.14;101584.84;4339821;33;20052;-76
2022/03/20 09:57:38;;;;;;;20.33;9.27;;;;;;;6.45;35.16;101585.66;4339922;33;20043;-75
2022/03/20 10:00:11;;;;;;;15.75;7.87;;;;;;;6.37;34.55;101582.97;4343210;32;20103;-72
2022/03/20 10:02:38;;;;;;;16.27;6.85;;;;;;;6.63;34.34;101579.41;4338829;33;20040;-76
2022/03/20 10:05:07;;;;;;;13.52;7.47;;;;;;;6.44;34.44;101541.16;4324862;33;20098;-73
2022/03/20 10:07:40;;;;;;;14.95;8.15;;;;;;;6.78;34.83;101580.47;4337822;33;20087;-73
2022/03/20 10:10:17;;;;;;;16.17;8.13;;;;;;;6.83;34.54;101567.41;4337349;33;20454;-73
2022/03/20 10:12:56;;;;;;;14.18;7.60;;;;;;;6.94;33.79;101573.47;4329256;33;20092;-73
2022/03/20 10:15:37;;;;;;;13.23;7.25;;;;;;;6.73;33.69;101529.22;4335112;33;20048;-74
2022/03/20 10:18:10;;;;;;;17.30;7.97;;;;;;;7.17;33.54;101574.53;4337699;33;20077;-73
2022/03/20 10:20:38;;;;;;;16.75;8.43;;;;;;;6.91;33.78;101524.59;4337138;32;20056;-74
2022/03/20 10:23:39;;;;;;;26.35;7.72;;;;;;;7.18;33.06;101570.84;4327355;32;20148;-70
2022/03/20 10:26:09;;;;;;;19.58;8.77;;;;;;;7.48;32.88;101565.81;4337889;32;20082;-74
2022/03/20 10:28:36;;;;;;;16.52;7.72;;;;;;;7.25;31.77;101536.19;4338092;32;20143;-72
2022/03/20 10:31:05;;;;;;;13.13;7.47;;;;;;;7.41;31.84;101571.03;4340298;32;20456;-74
2022/03/20 10:33:35;;;;;;;15.52;6.35;;;;;;;7.38;31.84;101527.66;4340167;33;20052;-72
2022/03/20 10:36:21;;;;;;;14.63;7.50;;;;;;;7.80;32.24;101572.19;4341132;33;20037;-72
2022/03/20 10:38:49;;;;;;;16.02;8.05;;;;;;;7.53;31.51;101530.47;4339711;33;20044;-74
2022/03/20 10:41:21;;;;;;;18.67;8.45;;;;;;;7.96;32.05;101564.16;4337260;33;20044;-72
2022/03/20 10:43:49;;;;;;;18.85;7.93;;;;;;;8.04;32.35;101560.62;4341723;32;20040;-72
2022/03/20 10:46:24;;;;;;;15.85;7.30;;;;;;;8.08;32.04;101523.53;4341291;32;20032;-71
2022/03/20 10:49:02;;;;;;;17.15;7.75;;;;;;;7.97;31.14;101565.78;4342372;32;20040;-74
2022/03/20 10:51:55;;;;;;;13.55;7.35;;;;;;;8.12;31.54;101565.09;4353783;32;20073;-71
2022/03/20 10:54:22;;;;;;;13.38;7.62;;;;;;;8.07;31.40;101556.72;4329769;32;20349;-72
2022/03/20 10:56:52;;;;;;;18.77;8.48;;;;;;;8.28;32.16;101562.37;4354917;32;20070;-71
2022/03/20 10:59:18;;;;;;;14.32;6.87;;;;;;;8.50;31.84;101565.34;4348650;32;20066;-73
2022/03/20 11:01:44;;;;;;;17.70;8.02;;;;;;;8.24;31.20;101523.47;4353830;32;20104;-71
2022/03/20 11:04:12;;;;;;;13.57;7.32;;;;;;;8.61;30.61;101545.34;4349456;32;20442;-72
2022/03/20 11:06:44;;;;;;;19.83;8.45;;;;;;;8.63;30.85;101551.38;4346806;32;20065;-71
2022/03/20 11:09:11;;;;;;;19.73;9.95;;;;;;;8.82;32.04;101552.78;4342199;32;20380;-71
2022/03/20 11:11:41;;;;;;;20.95;10.40;;;;;;;9.04;32.45;101541.22;4348420;32;20057;-71
2022/03/20 11:14:10;;;;;;;25.10;9.97;;;;;;;9.25;32.22;101553.19;4356945;32;20051;-71
2022/03/20 11:16:38;;;;;;;18.02;8.93;;;;;;;9.81;32.06;101537.59;4367909;32;20039;-74
2022/03/20 11:19:08;;;;;;;12.77;7.35;;;;;;;9.47;30.25;101537.22;4368990;32;20090;-72
2022/03/20 11:21:38;;;;;;;12.48;7.78;;;;;;;9.60;30.20;101502.47;4368533;32;20116;-72
2022/03/20 11:24:06;;;;;;;15.15;8.82;;;;;;;10.10;29.01;101525.19;4370012;32;20080;-71
2022/03/20 11:26:37;;;;;;;15.85;7.80;;;;;;;10.04;29.58;101531.31;4349958;33;20065;-73
2022/03/20 11:29:07;;;;;;;12.70;7.22;;;;;;;10.64;30.12;101531.28;4347472;33;20036;-73
2022/03/20 11:31:36;;;;;;;14.43;7.30;;;;;;;10.96;29.54;101505.75;4356396;32;20048;-71
2022/03/20 11:34:05;;;;;;;16.70;6.62;;;;;;;10.56;28.87;101469.44;4370313;32;20035;-72
2022/03/20 11:36:53;;;;;;;21.67;6.05;;;;;;;10.72;28.29;101501.53;4356342;32;20039;-71
2022/03/20 11:39:19;;;;;;;10.82;5.75;;;;;;;10.92;26.64;101463.19;4355160;32;20062;-72
2022/03/20 11:41:46;;;;;;;12.93;5.53;;;;;;;11.49;27.08;101491.91;4367611;32;20052;-72
2022/03/20 11:44:14;;;;;;;11.73;5.55;;;;;;;11.29;26.54;101474.72;4341633;33;20033;-71
2022/03/20 11:46:43;;;;;;;11.63;5.40;;;;;;;11.33;26.17;101502.94;4336474;33;20070;-72
2022/03/20 11:49:14;;;;;;;9.75;6.00;;;;;;;12.03;26.07;101493.12;4360629;32;20060;-71
2022/03/20 11:52:06;;;;;;;10.43;6.40;;;;;;;11.84;26.10;101456.84;4369274;32;20171;-72
2022/03/20 11:54:42;;;;;;;14.25;6.03;;;;;;;12.08;25.54;101490.66;4363579;32;20058;-72